createdAt,value
2023-04-16T00:01:09.389Z,27.83
2023-04-16T00:03:37.538Z,23.25
2023-04-16T00:06:05.975Z,22.95
2023-04-16T00:08:35.701Z,31.42
2023-04-16T00:11:05.480Z,25.85
2023-04-16T00:13:33.586Z,30.75
2023-04-16T00:16:01.706Z,23.38
2023-04-16T00:18:29.597Z,21.90
2023-04-16T00:20:57.520Z,35.15
2023-04-16T00:23:25.417Z,28.05
2023-04-16T00:25:53.919Z,38.13
2023-04-16T00:28:21.932Z,35.50
2023-04-16T00:30:49.903Z,26.35
2023-04-16T00:33:18.213Z,28.05
2023-04-16T00:35:47.284Z,30.65
2023-04-16T00:38:15.979Z,28.77
2023-04-16T00:40:44.070Z,33.30
2023-04-16T00:43:12.073Z,25.80
2023-04-16T00:45:40.240Z,25.92
2023-04-16T00:48:08.294Z,32.00
2023-04-16T00:50:36.288Z,28.80
2023-04-16T00:53:04.742Z,33.03
2023-04-16T00:55:32.676Z,35.28
2023-04-16T00:58:01.092Z,38.03
2023-04-16T01:00:29.263Z,34.90
2023-04-16T01:03:07.332Z,32.33
2023-04-16T01:05:37.091Z,29.90
2023-04-16T01:08:05.143Z,31.25
2023-04-16T01:10:33.201Z,33.55
2023-04-16T01:13:01.219Z,35.45
2023-04-16T01:15:29.510Z,30.15
2023-04-16T01:17:57.543Z,36.58
2023-04-16T01:20:25.592Z,34.40
2023-04-16T01:22:53.588Z,31.30
2023-04-16T01:25:21.812Z,37.25
2023-04-16T01:27:54.918Z,40.33
2023-04-16T01:30:23.107Z,35.47
2023-04-16T01:33:03.053Z,43.40
2023-04-16T01:35:31.206Z,42.45
2023-04-16T01:38:02.102Z,38.05
2023-04-16T01:40:30.679Z,32.22
2023-04-16T01:42:58.650Z,43.17
2023-04-16T01:45:26.642Z,36.50
2023-04-16T01:47:54.586Z,32.95
2023-04-16T01:50:23.414Z,32.17
2023-04-16T01:52:51.315Z,34.15
2023-04-16T01:55:19.291Z,38.05
2023-04-16T01:57:47.476Z,40.05
2023-04-16T02:00:15.927Z,36.13
2023-04-16T02:02:47.416Z,41.58
2023-04-16T02:05:21.596Z,37.15
2023-04-16T02:07:49.661Z,35.30
2023-04-16T02:10:17.742Z,44.65
2023-04-16T02:12:46.683Z,31.75
2023-04-16T02:15:16.354Z,37.45
2023-04-16T02:17:46.450Z,34.65
2023-04-16T02:20:14.572Z,43.00
2023-04-16T02:22:49.721Z,43.85
2023-04-16T02:25:20.623Z,44.30
2023-04-16T02:27:48.829Z,41.45
2023-04-16T02:30:27.289Z,38.70
2023-04-16T02:32:55.904Z,32.22
2023-04-16T02:35:24.740Z,40.05
2023-04-16T02:37:52.968Z,42.60
2023-04-16T02:40:21.086Z,41.03
2023-04-16T02:42:49.965Z,38.15
2023-04-16T02:45:17.919Z,46.70
2023-04-16T02:47:47.474Z,46.85
2023-04-16T02:50:15.668Z,36.42
2023-04-16T02:52:43.602Z,46.47
2023-04-16T02:55:12.037Z,47.90
2023-04-16T02:57:39.940Z,38.90
2023-04-16T03:00:08.723Z,42.28
2023-04-16T03:02:36.864Z,42.63
2023-04-16T03:05:05.147Z,44.55
2023-04-16T03:07:33.079Z,46.80
2023-04-16T03:10:01.248Z,48.03
2023-04-16T03:12:29.053Z,37.65
2023-04-16T03:14:56.989Z,47.42
2023-04-16T03:17:24.962Z,50.13
2023-04-16T03:19:52.961Z,48.83
2023-04-16T03:22:23.513Z,50.55
2023-04-16T03:24:51.583Z,47.35
2023-04-16T03:27:19.456Z,48.80
2023-04-16T03:29:47.838Z,52.67
2023-04-16T03:32:15.871Z,54.88
2023-04-16T03:34:43.818Z,45.10
2023-04-16T03:37:14.806Z,51.75
2023-04-16T03:39:42.686Z,52.38
2023-04-16T03:42:12.187Z,47.08
2023-04-16T03:44:41.344Z,58.97
2023-04-16T03:47:10.500Z,51.67
2023-04-16T03:49:39.084Z,49.25
2023-04-16T03:52:07.656Z,50.20
2023-04-16T03:54:35.715Z,52.28
2023-04-16T03:57:15.350Z,53.10
2023-04-16T03:59:43.661Z,54.40
2023-04-16T04:02:11.684Z,55.60
2023-04-16T04:04:39.649Z,56.17
2023-04-16T04:07:07.658Z,42.70
2023-04-16T04:09:35.766Z,55.38
2023-04-16T04:12:04.670Z,56.10
2023-04-16T04:14:39.690Z,47.30
2023-04-16T04:17:09.467Z,41.90
2023-04-16T04:19:40.286Z,44.85
2023-04-16T04:22:11.025Z,41.22
2023-04-16T04:24:39.512Z,48.88
2023-04-16T04:27:07.553Z,52.72
2023-04-16T04:29:35.566Z,58.55
2023-04-16T04:32:03.883Z,58.30
2023-04-16T04:34:32.087Z,49.58
2023-04-16T04:37:00.723Z,60.53
2023-04-16T04:39:29.551Z,35.60
2023-04-16T04:41:58.335Z,48.00
2023-04-16T04:44:26.545Z,36.03
2023-04-16T04:46:54.688Z,42.53
2023-04-16T04:49:25.091Z,33.38
2023-04-16T04:52:13.844Z,52.83
2023-04-16T04:54:42.219Z,47.15
2023-04-16T04:57:10.128Z,30.10
2023-04-16T04:59:38.380Z,36.83
2023-04-16T05:02:06.462Z,46.92
2023-04-16T05:04:34.428Z,45.70
2023-04-16T05:07:02.801Z,41.28
2023-04-16T05:09:30.964Z,41.92
2023-04-16T05:11:59.009Z,43.75
2023-04-16T05:14:29.913Z,33.22
2023-04-16T05:16:57.974Z,43.72
2023-04-16T05:19:26.182Z,44.22
2023-04-16T05:21:55.204Z,48.20
2023-04-16T05:24:23.420Z,40.33
2023-04-16T05:26:51.377Z,53.33
2023-04-16T05:29:19.481Z,47.55
2023-04-16T05:31:47.478Z,49.30
2023-04-16T05:34:15.570Z,41.65
2023-04-16T05:36:43.733Z,42.90
2023-04-16T05:39:11.910Z,47.30
2023-04-16T05:41:39.871Z,33.63
2023-04-16T05:44:07.791Z,37.83
2023-04-16T05:46:35.853Z,40.45
2023-04-16T05:49:03.875Z,51.25
2023-04-16T05:51:32.342Z,43.10
2023-04-16T05:54:00.364Z,36.67
2023-04-16T05:56:28.294Z,38.25
2023-04-16T05:58:56.109Z,48.88
2023-04-16T06:01:26.252Z,40.88
2023-04-16T06:03:54.789Z,43.35
2023-04-16T06:06:22.888Z,31.38
2023-04-16T06:08:50.956Z,42.97
2023-04-16T06:11:18.888Z,52.97
2023-04-16T06:13:47.249Z,42.47
2023-04-16T06:16:15.882Z,46.72
2023-04-16T06:18:49.808Z,50.17
2023-04-16T06:21:17.950Z,40.55
2023-04-16T06:23:45.857Z,47.22
2023-04-16T06:26:13.873Z,43.92
2023-04-16T06:28:41.767Z,39.28
2023-04-16T06:31:09.819Z,52.38
2023-04-16T06:33:39.604Z,38.50
2023-04-16T06:36:07.964Z,41.35
2023-04-16T06:38:37.048Z,44.95
2023-04-16T06:41:06.007Z,49.88
2023-04-16T06:43:34.332Z,52.72
2023-04-16T06:46:02.360Z,43.15
2023-04-16T06:48:33.518Z,52.92
2023-04-16T06:51:04.368Z,49.85
2023-04-16T06:53:33.116Z,48.20
2023-04-16T06:56:03.767Z,47.78
2023-04-16T06:58:34.299Z,58.25
2023-04-16T07:01:10.476Z,50.42
2023-04-16T07:03:58.032Z,51.67
2023-04-16T07:06:28.322Z,53.42
2023-04-16T07:08:56.298Z,50.88
2023-04-16T07:11:27.762Z,46.35
2023-04-16T07:13:55.997Z,40.85
2023-04-16T07:16:30.084Z,56.28
2023-04-16T07:19:00.820Z,62.03
2023-04-16T07:21:30.742Z,58.10
2023-04-16T07:23:58.782Z,52.65
2023-04-16T07:26:26.742Z,44.33
2023-04-16T07:28:55.155Z,52.83
2023-04-16T07:31:23.238Z,41.92
2023-04-16T07:33:51.757Z,57.47
2023-04-16T07:36:19.922Z,56.55
2023-04-16T07:38:47.944Z,44.95
2023-04-16T07:41:16.087Z,39.83
2023-04-16T07:43:43.918Z,55.33
2023-04-16T07:46:11.859Z,57.08
2023-04-16T07:48:42.639Z,57.25
2023-04-16T07:51:10.942Z,55.22
2023-04-16T07:53:38.809Z,45.65
2023-04-16T07:56:07.533Z,49.78
2023-04-16T07:58:35.760Z,55.60
2023-04-16T08:01:03.813Z,42.10
2023-04-16T08:03:31.820Z,51.38
2023-04-16T08:05:59.991Z,54.42
2023-04-16T08:08:27.888Z,43.78
2023-04-16T08:10:56.180Z,65.53
2023-04-16T08:13:24.428Z,48.50
2023-04-16T08:15:52.441Z,50.42
2023-04-16T08:18:21.744Z,49.58
2023-04-16T08:20:50.833Z,51.70
2023-04-16T08:23:19.013Z,50.00
2023-04-16T08:25:47.796Z,53.08
2023-04-16T08:28:18.528Z,33.97
2023-04-16T08:30:50.408Z,51.50
2023-04-16T08:33:18.616Z,52.97
2023-04-16T08:35:49.560Z,42.45
2023-04-16T08:38:17.878Z,45.58
2023-04-16T08:40:51.719Z,44.95
2023-04-16T08:43:22.026Z,48.83
2023-04-16T08:45:52.689Z,54.50
2023-04-16T08:48:22.312Z,42.72
2023-04-16T08:50:55.610Z,40.92
2023-04-16T08:53:47.623Z,47.88
2023-04-16T08:56:18.835Z,37.22
2023-04-16T08:58:48.810Z,41.65
2023-04-16T09:01:18.968Z,40.80
2023-04-16T09:03:53.759Z,40.92
2023-04-16T09:06:22.470Z,43.17
2023-04-16T09:08:51.328Z,40.10
2023-04-16T09:11:22.017Z,41.33
2023-04-16T09:13:50.628Z,40.58
2023-04-16T09:16:21.599Z,38.90
2023-04-16T09:18:49.814Z,32.83
2023-04-16T09:21:24.212Z,39.42
2023-04-16T09:23:54.563Z,34.80
2023-04-16T09:26:24.140Z,37.08
2023-04-16T09:28:52.405Z,36.30
2023-04-16T09:31:22.553Z,36.15
2023-04-16T09:34:13.045Z,34.40
2023-04-16T09:36:41.433Z,34.15
2023-04-16T09:39:22.105Z,30.67
2023-04-16T09:41:54.929Z,34.65
2023-04-16T09:44:42.866Z,32.88
2023-04-16T09:47:13.693Z,36.67
2023-04-16T09:49:45.869Z,30.23
2023-04-16T09:52:22.653Z,29.70
2023-04-16T09:54:55.196Z,28.63
2023-04-16T10:03:21.558Z,25.73
2023-04-16T10:06:20.763Z,27.52
2023-04-16T10:08:56.054Z,29.55
2023-04-16T10:11:27.619Z,32.88
2023-04-16T10:14:12.865Z,29.58
2023-04-16T10:16:42.156Z,29.92
2023-04-16T10:19:16.048Z,34.03
2023-04-16T10:22:00.401Z,27.60
2023-04-16T10:24:34.687Z,27.55
2023-04-16T10:27:12.637Z,27.92
2023-04-16T10:29:47.412Z,34.15
2023-04-16T10:32:35.974Z,30.13
2023-04-16T10:35:57.940Z,24.02
2023-04-16T10:38:58.347Z,30.33
2023-04-16T10:41:30.412Z,29.27
2023-04-16T10:44:09.963Z,24.50
2023-04-16T10:46:44.214Z,26.90
2023-04-16T10:49:23.249Z,27.85
2023-04-16T10:51:58.795Z,23.23
2023-04-16T10:54:31.441Z,26.38
2023-04-16T10:59:55.405Z,26.52
2023-04-16T11:02:29.741Z,25.95
2023-04-16T11:04:59.069Z,25.13
2023-04-16T11:07:58.145Z,23.60
2023-04-16T11:10:51.178Z,31.58
2023-04-16T11:13:38.625Z,26.45
2023-04-16T11:16:07.691Z,29.35
2023-04-16T11:19:24.260Z,30.67
2023-04-16T11:22:00.676Z,30.02
2023-04-16T11:31:05.209Z,32.13
2023-04-16T11:33:39.975Z,23.92
2023-04-16T11:36:11.498Z,23.65
2023-04-16T11:38:54.218Z,30.75
2023-04-16T11:44:02.254Z,21.00
2023-04-16T11:46:44.794Z,25.92
2023-04-16T11:49:37.446Z,26.58
2023-04-16T11:52:13.849Z,28.90
2023-04-16T11:54:56.396Z,26.92
2023-04-16T11:57:39.088Z,26.48
2023-04-16T12:03:09.279Z,27.33
2023-04-16T12:05:51.947Z,23.83
2023-04-16T12:08:40.146Z,21.30
2023-04-16T12:14:18.395Z,23.58
2023-04-16T12:19:19.400Z,22.65
2023-04-16T12:22:05.608Z,27.58
2023-04-16T12:24:37.990Z,28.20
2023-04-16T12:27:08.066Z,26.02
2023-04-16T12:29:39.875Z,17.02
2023-04-16T12:32:25.069Z,26.00
2023-04-16T12:37:45.861Z,25.35
2023-04-16T12:40:18.980Z,24.05
2023-04-16T12:43:04.733Z,20.60
2023-04-16T12:45:40.202Z,19.90
2023-04-16T12:48:09.928Z,29.00
2023-04-16T12:50:49.429Z,23.02
2023-04-16T12:53:24.998Z,21.90
2023-04-16T12:56:06.991Z,26.73
2023-04-16T12:58:38.915Z,18.30
2023-04-16T13:01:07.370Z,25.90
2023-04-16T13:03:38.820Z,24.27
2023-04-16T13:06:07.614Z,24.30
2023-04-16T13:08:37.435Z,30.60
2023-04-16T13:11:08.846Z,23.95
2023-04-16T13:13:37.320Z,21.67
2023-04-16T13:16:06.843Z,28.83
2023-04-16T13:18:36.484Z,26.45
2023-04-16T13:21:08.688Z,23.67
2023-04-16T13:23:39.412Z,19.73
2023-04-16T13:26:07.593Z,16.63
2023-04-16T13:28:35.950Z,22.15
2023-04-16T13:31:15.706Z,20.15
2023-04-16T13:33:50.988Z,24.77
2023-04-16T13:36:27.051Z,19.50
2023-04-16T13:39:01.552Z,24.60
2023-04-16T13:41:29.886Z,23.05
2023-04-16T13:44:00.350Z,23.73
2023-04-16T13:46:43.740Z,26.13
2023-04-16T13:49:12.380Z,21.73
2023-04-16T13:51:46.765Z,22.48
2023-04-16T13:54:17.409Z,20.20
2023-04-16T13:56:56.003Z,20.23
2023-04-16T13:59:24.573Z,21.45
2023-04-16T14:02:00.336Z,22.45
2023-04-16T14:04:28.655Z,21.25
2023-04-16T14:06:57.568Z,24.50
2023-04-16T14:09:25.745Z,19.67
2023-04-16T14:12:01.650Z,21.88
2023-04-16T14:14:53.193Z,21.92
2023-04-16T14:17:23.873Z,16.48
2023-04-16T14:20:00.596Z,21.23
2023-04-16T14:22:28.719Z,20.55
2023-04-16T14:24:56.676Z,20.88
2023-04-16T14:27:24.673Z,21.17
2023-04-16T14:29:52.642Z,20.65
2023-04-16T14:32:28.660Z,22.45
2023-04-16T14:34:59.628Z,20.95
2023-04-16T14:37:32.305Z,20.33
2023-04-16T14:40:03.282Z,23.08
2023-04-16T14:42:33.792Z,21.13
2023-04-16T14:45:06.730Z,22.50
2023-04-16T14:47:35.767Z,24.60
2023-04-16T14:50:06.653Z,19.85
2023-04-16T14:52:38.281Z,20.23
2023-04-16T14:55:17.414Z,19.00
2023-04-16T14:57:46.430Z,26.05
2023-04-16T15:00:18.840Z,23.92
2023-04-16T15:02:48.458Z,24.27
2023-04-16T15:05:16.831Z,19.52
2023-04-16T15:07:48.830Z,26.88
2023-04-16T15:10:20.197Z,24.48
2023-04-16T15:12:57.963Z,22.25
2023-04-16T15:15:26.238Z,21.60
2023-04-16T15:17:54.431Z,18.98
2023-04-16T15:20:22.515Z,20.92
2023-04-16T15:22:51.085Z,19.73
2023-04-16T15:25:29.164Z,21.58
2023-04-16T15:27:57.992Z,21.80
2023-04-16T15:30:26.789Z,22.85
2023-04-16T15:32:55.845Z,22.35
2023-04-16T15:35:24.626Z,19.88
2023-04-16T15:37:53.129Z,22.58
2023-04-16T15:40:25.707Z,20.92
2023-04-16T15:42:56.524Z,21.73
2023-04-16T15:45:26.775Z,25.58
2023-04-16T15:47:58.357Z,22.92
2023-04-16T15:50:28.954Z,21.10
2023-04-16T15:53:05.259Z,22.25
2023-04-16T15:56:19.474Z,24.35
2023-04-16T15:58:53.547Z,18.42
2023-04-16T16:01:28.369Z,20.27
2023-04-16T16:04:03.092Z,27.05
2023-04-16T16:06:38.022Z,20.67
2023-04-16T16:10:08.713Z,22.17
2023-04-16T16:15:14.226Z,20.27
2023-04-16T16:17:48.140Z,21.58
2023-04-16T16:20:19.935Z,20.75
2023-04-16T16:22:56.203Z,16.90
2023-04-16T16:25:30.180Z,22.33
2023-04-16T16:28:06.168Z,21.55
2023-04-16T16:30:51.143Z,20.90
2023-04-16T16:33:19.484Z,24.25
2023-04-16T16:35:59.769Z,21.65
2023-04-16T16:38:54.599Z,22.05
2023-04-16T16:41:29.374Z,20.10
2023-04-16T16:44:00.865Z,20.63
2023-04-16T16:46:32.538Z,23.95
2023-04-16T16:49:01.094Z,22.02
2023-04-16T16:51:38.467Z,24.75
2023-04-16T16:54:25.807Z,23.88
2023-04-16T16:57:02.596Z,19.08
2023-04-16T16:59:32.786Z,21.42
2023-04-16T17:02:01.423Z,22.48
2023-04-16T17:04:33.331Z,23.90
2023-04-16T17:07:03.026Z,24.30
2023-04-16T17:09:35.746Z,24.00
2023-04-16T17:12:14.150Z,20.38
2023-04-16T17:14:44.677Z,23.83
2023-04-16T17:17:13.184Z,22.65
2023-04-16T17:19:44.612Z,22.63
2023-04-16T17:22:12.964Z,25.83
2023-04-16T17:24:41.364Z,20.95
2023-04-16T17:27:09.861Z,26.77
2023-04-16T17:29:40.731Z,24.80
2023-04-16T17:32:11.747Z,24.10
2023-04-16T17:34:40.055Z,24.60
2023-04-16T17:37:09.967Z,22.83
2023-04-16T17:39:38.509Z,22.15
2023-04-16T17:42:06.783Z,21.88
2023-04-16T17:44:36.330Z,23.70
2023-04-16T17:47:05.165Z,24.15
2023-04-16T17:49:42.782Z,25.73
2023-04-16T17:52:11.162Z,25.15
2023-04-16T17:54:39.651Z,24.25
2023-04-16T17:57:08.038Z,22.17
2023-04-16T17:59:39.492Z,21.27
2023-04-16T18:02:10.316Z,25.50
2023-04-16T18:04:46.889Z,23.73
2023-04-16T18:07:21.362Z,23.98
2023-04-16T18:09:49.951Z,25.08
2023-04-16T18:12:18.704Z,22.95
2023-04-16T18:14:46.831Z,24.98
2023-04-16T18:17:15.832Z,23.00
2023-04-16T18:19:48.113Z,22.45
2023-04-16T18:22:20.162Z,24.35
2023-04-16T18:24:58.053Z,22.48
2023-04-16T18:27:26.722Z,27.20
2023-04-16T18:29:55.371Z,22.90
2023-04-16T18:32:25.001Z,25.63
2023-04-16T18:34:53.847Z,23.70
2023-04-16T18:37:22.026Z,23.65
2023-04-16T18:39:52.822Z,27.23
2023-04-16T18:42:20.935Z,28.05
2023-04-16T18:44:54.042Z,24.73
2023-04-16T18:47:22.257Z,27.67
2023-04-16T18:49:50.536Z,23.15
2023-04-16T18:52:22.149Z,31.02
2023-04-16T18:54:50.184Z,28.55
2023-04-16T18:57:20.623Z,28.55
2023-04-16T18:59:49.037Z,28.60
2023-04-16T19:02:18.333Z,28.00
2023-04-16T19:04:51.830Z,30.77
2023-04-16T19:07:21.480Z,27.77
2023-04-16T19:09:52.857Z,29.08
2023-04-16T19:12:21.709Z,31.05
2023-04-16T19:14:49.936Z,30.90
2023-04-16T19:17:24.627Z,28.70
2023-04-16T19:22:25.319Z,28.95
2023-04-16T19:25:01.732Z,29.95
2023-04-16T19:27:35.750Z,26.55
2023-04-16T19:30:05.623Z,36.10
2023-04-16T19:32:35.623Z,31.20
2023-04-16T19:35:04.948Z,28.27
2023-04-16T19:37:33.334Z,32.90
2023-04-16T19:40:02.311Z,24.48
2023-04-16T19:42:31.374Z,30.48
2023-04-16T19:45:01.671Z,30.35
2023-04-16T19:47:31.124Z,30.08
2023-04-16T19:50:01.067Z,27.48
2023-04-16T19:52:32.234Z,26.83
2023-04-16T19:55:03.370Z,29.83
2023-04-16T19:57:31.626Z,31.02
2023-04-16T19:59:59.672Z,29.98
2023-04-16T20:02:30.976Z,31.73
2023-04-16T20:05:02.328Z,28.27
2023-04-16T20:07:32.916Z,30.27
2023-04-16T20:10:02.605Z,28.88
2023-04-16T20:12:30.766Z,24.67
2023-04-16T20:14:58.738Z,29.58
2023-04-16T20:17:26.951Z,30.60
2023-04-16T20:20:00.888Z,28.48
2023-04-16T20:22:28.898Z,30.60
2023-04-16T20:24:56.830Z,27.25
2023-04-16T20:27:24.756Z,27.95
2023-04-16T20:29:56.502Z,32.08
2023-04-16T20:32:28.163Z,26.55
2023-04-16T20:34:56.666Z,29.77
2023-04-16T20:37:24.767Z,33.85
2023-04-16T20:39:54.177Z,26.05
2023-04-16T20:42:22.795Z,25.88
2023-04-16T20:44:55.786Z,30.63
2023-04-16T20:47:23.796Z,29.70
2023-04-16T20:49:52.808Z,31.02
2023-04-16T20:52:21.532Z,31.20
2023-04-16T20:54:52.045Z,30.20
2023-04-16T20:57:20.326Z,28.40
2023-04-16T20:59:49.169Z,29.35
2023-04-16T21:02:17.439Z,30.50
2023-04-16T21:04:45.798Z,34.25
2023-04-16T21:07:13.970Z,28.42
2023-04-16T21:09:44.331Z,33.88
2023-04-16T21:12:12.463Z,32.65
2023-04-16T21:14:40.846Z,35.08
2023-04-16T21:17:08.750Z,28.88
2023-04-16T21:19:36.680Z,29.38
2023-04-16T21:22:04.506Z,26.70
2023-04-16T21:24:32.921Z,31.83
2023-04-16T21:27:01.772Z,30.63
2023-04-16T21:29:30.344Z,24.08
2023-04-16T21:31:58.314Z,28.92
2023-04-16T21:34:26.441Z,28.75
2023-04-16T21:36:54.764Z,25.67
2023-04-16T21:39:24.568Z,23.17
2023-04-16T21:41:52.448Z,26.65
2023-04-16T21:44:21.224Z,29.50
2023-04-16T21:46:50.033Z,33.47
2023-04-16T21:49:18.050Z,38.25
2023-04-16T21:51:46.219Z,32.92
2023-04-16T21:54:17.775Z,36.97
2023-04-16T21:56:46.242Z,35.47
2023-04-16T21:59:14.072Z,36.13
2023-04-16T22:01:42.312Z,33.67
2023-04-16T22:04:12.166Z,37.88
2023-04-16T22:06:40.599Z,31.00
2023-04-16T22:09:11.894Z,35.58
2023-04-16T22:11:40.855Z,34.53
2023-04-16T22:14:08.902Z,33.95
2023-04-16T22:16:49.905Z,35.03
2023-04-16T22:19:21.636Z,29.25
2023-04-16T22:21:50.195Z,37.75
2023-04-16T22:24:18.172Z,28.45
2023-04-16T22:26:47.921Z,38.65
2023-04-16T22:29:16.216Z,35.38
2023-04-16T22:31:44.298Z,32.40
2023-04-16T22:34:12.405Z,41.40
2023-04-16T22:36:41.218Z,34.08
2023-04-16T22:39:11.754Z,39.92
2023-04-16T22:41:39.909Z,37.97
2023-04-16T22:44:08.177Z,43.88
2023-04-16T22:46:36.516Z,40.30
2023-04-16T22:49:04.663Z,35.40
2023-04-16T22:51:32.606Z,34.60
2023-04-16T22:54:00.869Z,37.30
2023-04-16T22:56:30.383Z,36.67
2023-04-16T22:58:58.410Z,37.20
2023-04-16T23:01:26.482Z,39.22
2023-04-16T23:03:54.463Z,38.63
2023-04-16T23:06:23.127Z,31.52
2023-04-16T23:08:51.479Z,36.17
2023-04-16T23:11:19.566Z,43.92
2023-04-16T23:13:47.579Z,40.75
2023-04-16T23:16:15.574Z,45.58
2023-04-16T23:18:43.759Z,40.78
2023-04-16T23:21:11.756Z,29.95
2023-04-16T23:23:41.061Z,45.47
2023-04-16T23:26:08.895Z,35.35
2023-04-16T23:28:37.151Z,37.97
2023-04-16T23:31:07.308Z,38.38
2023-04-16T23:33:35.689Z,39.60
2023-04-16T23:36:03.640Z,40.03
2023-04-16T23:38:32.734Z,37.08
2023-04-16T23:41:00.936Z,30.73
2023-04-16T23:43:29.215Z,34.17
2023-04-16T23:45:57.355Z,34.10
2023-04-16T23:48:25.325Z,32.83
2023-04-16T23:50:53.291Z,33.20
2023-04-16T23:53:21.491Z,25.67
2023-04-16T23:55:49.462Z,34.45
2023-04-16T23:58:17.529Z,32.72
